Time;durP1;ratioP1;P1;durP2;ratioP2;P2;SDS_P1;SDS_P2;PMS_P1;PMS_P2;Temp;Humidity;BMP_temperature;BMP_pressure;BME280_temperature;BME280_humidity;BME280_pressure;Samples;Min_cycle;Max_cycle;Signal;HPM_P1;HPM_P2
2022/06/23 00:01:35;;;;;;;8.93;3.17;;;;;;;;;;5192356;28;20120;-84
2022/06/23 00:04:10;;;;;;;7.40;3.87;;;;;;;;;;5190631;28;20038;-84
2022/06/23 00:06:41;;;;;;;8.27;3.47;;;;;;;;;;5201237;28;20029;-84
2022/06/23 00:09:27;;;;;;;9.53;3.50;;;;;;;;;;5210590;28;20030;-84
2022/06/23 00:11:59;;;;;;;6.40;3.20;;;;;;;;;;5207675;28;20034;-84
2022/06/23 00:14:30;;;;;;;10.27;3.23;;;;;;;;;;5207320;28;20054;-83
2022/06/23 00:17:14;;;;;;;9.57;3.78;;;;;;;;;;5208731;28;20083;-83
2022/06/23 00:19:45;;;;;;;9.38;3.60;;;;;;;;;;5195560;28;20573;-84
2022/06/23 00:22:18;;;;;;;9.90;3.77;;;;;;;;;;5209728;28;20025;-84
2022/06/23 00:24:52;;;;;;;7.40;3.90;;;;;;;;;;5211337;28;20030;-84
2022/06/23 00:27:27;;;;;;;9.07;4.10;;;;;;;;;;5200226;28;20025;-84
2022/06/23 00:30:00;;;;;;;7.03;3.20;;;;;;;;;;5201243;28;20037;-84
2022/06/23 00:32:31;;;;;;;10.37;4.13;;;;;;;;;;5209491;28;20038;-84
2022/06/23 00:35:05;;;;;;;8.97;4.10;;;;;;;;;;5197880;28;20022;-83
2022/06/23 00:37:36;;;;;;;7.80;3.53;;;;;;;;;;5205146;28;20124;-83
2022/06/23 00:40:11;;;;;;;8.38;3.92;;;;;;;;;;5210230;28;20061;-83
2022/06/23 00:42:48;;;;;;;7.53;4.00;;;;;;;;;;5201197;28;20037;-84
2022/06/23 00:45:27;;;;;;;10.07;3.80;;;;;;;;;;5209487;28;20405;-83
2022/06/23 00:48:10;;;;;;;7.60;3.67;;;;;;;;;;5198832;28;20022;-83
2022/06/23 00:50:41;;;;;;;9.30;4.43;;;;;;;;;;5191529;28;20026;-84
2022/06/23 00:53:12;;;;;;;8.18;4.47;;;;;;;;;;5189849;28;20030;-83
2022/06/23 00:55:51;;;;;;;11.18;4.60;;;;;;;;;;5201816;28;20056;-84
2022/06/23 00:58:41;;;;;;;8.93;4.60;;;;;;;;;;5208065;28;20018;-82
2022/06/23 01:01:15;;;;;;;8.30;4.70;;;;;;;;;;5192327;28;20101;-83
2022/06/23 01:03:51;;;;;;;12.73;4.43;;;;;;;;;;5191134;28;20077;-83
2022/06/23 01:06:34;;;;;;;10.23;4.20;;;;;;;;;;5194242;28;20053;-83
2022/06/23 01:09:31;;;;;;;6.57;4.53;;;;;;;;;;5190394;28;20100;-83
2022/06/23 01:12:05;;;;;;;7.47;4.43;;;;;;;;;;5197161;28;20049;-83
2022/06/23 01:15:04;;;;;;;6.07;4.60;;;;;;;;;;5203485;28;20068;-83
2022/06/23 01:17:39;;;;;;;9.23;4.70;;;;;;;;;;5188999;28;20034;-83
2022/06/23 01:20:29;;;;;;;12.50;6.00;;;;;;;;;;5197840;28;20696;-83
2022/06/23 01:23:19;;;;;;;8.33;4.90;;;;;;;;;;5189029;28;20105;-82
2022/06/23 01:25:50;;;;;;;13.50;5.97;;;;;;;;;;5199361;28;20033;-83
2022/06/23 01:28:23;;;;;;;10.30;5.22;;;;;;;;;;5188098;28;20027;-83
2022/06/23 01:31:15;;;;;;;12.73;6.07;;;;;;;;;;5195557;28;20022;-76
2022/06/23 01:33:53;;;;;;;12.57;6.50;;;;;;;;;;5190298;28;20451;-83
2022/06/23 01:36:44;;;;;;;10.30;5.47;;;;;;;;;;5208682;28;20028;-83
2022/06/23 01:39:24;;;;;;;12.83;5.70;;;;;;;;;;5186559;28;20116;-83
2022/06/23 01:42:04;;;;;;;9.70;6.30;;;;;;;;;;5187457;28;20037;-83
2022/06/23 01:44:36;;;;;;;9.07;6.60;;;;;;;;;;5192644;28;20045;-83
2022/06/23 01:47:13;;;;;;;9.20;5.83;;;;;;;;;;5191792;28;20139;-83
2022/06/23 01:49:45;;;;;;;9.10;5.97;;;;;;;;;;5189831;28;20028;-83
2022/06/23 01:52:19;;;;;;;12.43;6.57;;;;;;;;;;5190454;28;20402;-83
2022/06/23 01:54:57;;;;;;;11.37;6.80;;;;;;;;;;5188809;28;20105;-84
2022/06/23 01:57:37;;;;;;;9.87;6.03;;;;;;;;;;5198945;28;20108;-83
2022/06/23 02:00:19;;;;;;;15.20;6.43;;;;;;;;;;5189353;28;20089;-83
2022/06/23 02:02:58;;;;;;;9.93;6.50;;;;;;;;;;5188646;28;20203;-83
2022/06/23 02:05:48;;;;;;;13.33;6.97;;;;;;;;;;5189794;28;20023;-83
2022/06/23 02:08:27;;;;;;;16.40;6.73;;;;;;;;;;5190142;28;20152;-83
2022/06/23 02:10:58;;;;;;;9.83;6.83;;;;;;;;;;5201369;28;20022;-83
2022/06/23 02:13:32;;;;;;;12.35;6.63;;;;;;;;;;5207930;28;20052;-83
2022/06/23 02:16:03;;;;;;;;;;;;;;;;;;5204616;28;20028;-83
2022/06/23 02:18:57;;;;;;;14.30;7.30;;;;;;;;;;5208965;28;20277;-83
2022/06/23 02:21:32;;;;;;;10.68;7.55;;;;;;;;;;5191730;28;20026;-83
2022/06/23 02:24:03;;;;;;;;;;;;;;;;;;5191418;28;20512;-84
2022/06/23 02:26:36;;;;;;;12.93;7.10;;;;;;;;;;5187859;28;19905;-84
2022/06/23 02:29:07;;;;;;;11.10;6.17;;;;;;;;;;5189526;28;20277;-84
2022/06/23 02:31:51;;;;;;;16.57;6.50;;;;;;;;;;5189628;28;20111;-83
2022/06/23 02:34:28;;;;;;;15.57;7.45;;;;;;;;;;5197682;28;20028;-83
2022/06/23 02:37:02;;;;;;;16.20;7.97;;;;;;;;;;5194748;28;20018;-83
2022/06/23 02:39:33;;;;;;;;;;;;;;;;;;5207827;28;20054;-82
2022/06/23 02:42:14;;;;;;;11.60;7.17;;;;;;;;;;5208057;28;19960;-83
2022/06/23 02:44:45;;;;;;;13.07;7.57;;;;;;;;;;5209543;28;20636;-83
2022/06/23 02:47:29;;;;;;;14.45;7.40;;;;;;;;;;5190966;28;20027;-83
2022/06/23 02:50:21;;;;;;;11.75;7.05;;;;;;;;;;5191078;28;20034;-82
2022/06/23 02:52:55;;;;;;;19.10;8.53;;;;;;;;;;5217043;28;20433;-83
2022/06/23 02:55:41;;;;;;;14.60;6.85;;;;;;;;;;5196408;28;20030;-83
2022/06/23 02:58:15;;;;;;;10.57;6.47;;;;;;;;;;5205993;28;20134;-83
2022/06/23 03:01:05;;;;;;;14.48;7.57;;;;;;;;;;5192669;28;20022;-83
2022/06/23 03:03:46;;;;;;;11.37;7.60;;;;;;;;;;5204866;28;20518;-83
2022/06/23 03:06:40;;;;;;;15.80;7.37;;;;;;;;;;5198166;28;20018;-83
2022/06/23 03:09:14;;;;;;;15.15;7.45;;;;;;;;;;5188810;28;20682;-84
2022/06/23 03:11:54;;;;;;;10.32;7.22;;;;;;;;;;5210217;28;20084;-83
2022/06/23 03:14:42;;;;;;;10.93;7.00;;;;;;;;;;5212637;28;20057;-83
2022/06/23 03:17:29;;;;;;;18.47;7.70;;;;;;;;;;5198092;28;20029;-84
2022/06/23 03:20:00;;;;;;;11.70;7.13;;;;;;;;;;5203191;28;20563;-83
2022/06/23 03:22:37;;;;;;;14.43;8.33;;;;;;;;;;5203018;28;20057;-83
2022/06/23 03:25:19;;;;;;;12.67;7.37;;;;;;;;;;5193109;28;20106;-84
2022/06/23 03:28:09;;;;;;;19.03;8.27;;;;;;;;;;5191415;28;20023;-84
2022/06/23 03:30:45;;;;;;;12.70;8.17;;;;;;;;;;5192731;28;20027;-83
2022/06/23 03:33:19;;;;;;;10.37;7.43;;;;;;;;;;5211440;28;20408;-83
2022/06/23 03:35:56;;;;;;;13.10;7.00;;;;;;;;;;5198553;28;20041;-83
2022/06/23 03:41:36;;;;;;;9.47;7.20;;;;;;;;;;5209458;28;20034;-75
2022/06/23 03:44:21;;;;;;;12.63;7.43;;;;;;;;;;5212276;28;20033;-83
2022/06/23 03:46:52;;;;;;;;;;;;;;;;;;5207598;28;20032;-83
2022/06/23 03:49:33;;;;;;;13.02;7.25;;;;;;;;;;5208924;28;19917;-83
2022/06/23 03:52:06;;;;;;;13.93;8.00;;;;;;;;;;5199761;28;20034;-83
2022/06/23 03:54:46;;;;;;;10.67;7.13;;;;;;;;;;5211601;28;20048;-82
2022/06/23 03:57:24;;;;;;;9.90;7.53;;;;;;;;;;5210052;28;20141;-82
2022/06/23 04:00:14;;;;;;;13.23;7.80;;;;;;;;;;5205168;28;20056;-82
2022/06/23 04:02:48;;;;;;;15.13;8.07;;;;;;;;;;5191281;28;20034;-83
2022/06/23 04:05:27;;;;;;;11.13;7.55;;;;;;;;;;5199773;28;20029;-82
2022/06/23 04:08:00;;;;;;;13.23;8.27;;;;;;;;;;5205854;28;20428;-83
2022/06/23 04:10:37;;;;;;;16.23;7.47;;;;;;;;;;5209429;28;20018;-83
2022/06/23 04:13:17;;;;;;;13.00;8.30;;;;;;;;;;5207469;28;20050;-84
2022/06/23 04:15:49;;;;;;;13.67;7.50;;;;;;;;;;5199812;28;20026;-83
2022/06/23 04:18:25;;;;;;;11.10;7.07;;;;;;;;;;5209504;28;20096;-83
2022/06/23 04:21:01;;;;;;;13.00;7.07;;;;;;;;;;5191982;28;20476;-83
2022/06/23 04:23:32;;;;;;;11.53;7.03;;;;;;;;;;5202164;28;20210;-83
2022/06/23 04:26:14;;;;;;;13.37;7.80;;;;;;;;;;5189221;28;20018;-83
2022/06/23 04:28:51;;;;;;;14.80;7.10;;;;;;;;;;5202206;28;20034;-83
2022/06/23 04:31:33;;;;;;;9.70;6.73;;;;;;;;;;5193099;28;20022;-83
2022/06/23 04:34:05;;;;;;;11.93;7.03;;;;;;;;;;5190604;28;20084;-83
2022/06/23 04:36:42;;;;;;;10.70;6.67;;;;;;;;;;5198577;28;20029;-84
2022/06/23 04:39:16;;;;;;;8.73;5.97;;;;;;;;;;5208350;28;20057;-83
2022/06/23 04:41:58;;;;;;;7.95;6.68;;;;;;;;;;5206240;28;20034;-83
2022/06/23 04:44:31;;;;;;;10.63;6.37;;;;;;;;;;5206508;28;20034;-83
2022/06/23 04:47:07;;;;;;;12.37;6.63;;;;;;;;;;5204066;28;20030;-84
2022/06/23 04:49:41;;;;;;;12.20;7.17;;;;;;;;;;5204079;28;20022;-82
2022/06/23 04:52:12;;;;;;;9.57;6.33;;;;;;;;;;5199718;28;20045;-82
2022/06/23 04:54:49;;;;;;;13.93;6.72;;;;;;;;;;5197912;28;20089;-82
2022/06/23 04:57:23;;;;;;;11.77;6.43;;;;;;;;;;5188804;28;20603;-83
2022/06/23 04:59:56;;;;;;;17.00;6.43;;;;;;;;;;5190189;28;20050;-75
2022/06/23 05:02:31;;;;;;;11.67;6.37;;;;;;;;;;5198967;28;20029;-83
2022/06/23 05:05:15;;;;;;;14.50;5.90;;;;;;;;;;5190218;28;20018;-81
2022/06/23 05:07:50;;;;;;;13.02;5.45;;;;;;;;;;5193897;28;20018;-83
2022/06/23 05:10:44;;;;;;;10.83;5.83;;;;;;;;;;5199966;28;20018;-82
2022/06/23 05:13:21;;;;;;;13.45;6.45;;;;;;;;;;5187560;28;20097;-83
2022/06/23 05:15:52;;;;;;;10.63;5.77;;;;;;;;;;5201187;28;20110;-83
2022/06/23 05:18:31;;;;;;;12.60;6.25;;;;;;;;;;5196935;28;20105;-83
2022/06/23 05:21:08;;;;;;;10.53;6.70;;;;;;;;;;5193603;28;20500;-83
2022/06/23 05:23:41;;;;;;;8.70;6.00;;;;;;;;;;5187885;28;20034;-83
2022/06/23 05:26:16;;;;;;;16.47;6.40;;;;;;;;;;5192245;28;20567;-82
2022/06/23 05:28:51;;;;;;;10.40;5.43;;;;;;;;;;5207863;28;20014;-84
2022/06/23 05:31:24;;;;;;;13.33;6.37;;;;;;;;;;5204655;28;20037;-82
2022/06/23 05:34:00;;;;;;;9.25;5.65;;;;;;;;;;5208795;28;20037;-81
2022/06/23 05:36:35;;;;;;;9.27;5.23;;;;;;;;;;5208020;28;20101;-82
2022/06/23 05:39:14;;;;;;;11.07;5.70;;;;;;;;;;5207845;28;20389;-82
2022/06/23 05:41:46;;;;;;;9.90;6.13;;;;;;;;;;5203358;28;20028;-82
2022/06/23 05:44:20;;;;;;;10.17;5.60;;;;;;;;;;5205848;28;20025;-82
2022/06/23 05:46:52;;;;;;;7.93;6.10;;;;;;;;;;5207824;28;20022;-81
2022/06/23 05:49:30;;;;;;;9.47;6.67;;;;;;;;;;5202540;28;20487;-81
2022/06/23 05:52:04;;;;;;;10.60;5.80;;;;;;;;;;5202953;28;20045;-82
2022/06/23 05:54:51;;;;;;;11.80;5.47;;;;;;;;;;5194404;28;20019;-82
2022/06/23 05:57:45;;;;;;;9.33;5.53;;;;;;;;;;5201145;28;20045;-83
2022/06/23 06:00:28;;;;;;;17.20;5.80;;;;;;;;;;5204195;28;20064;-81
2022/06/23 06:03:07;;;;;;;8.00;5.30;;;;;;;;;;5206059;28;20064;-79
2022/06/23 06:05:41;;;;;;;10.97;5.60;;;;;;;;;;5207974;28;20056;-78
2022/06/23 06:08:31;;;;;;;14.18;6.50;;;;;;;;;;5207436;28;20022;-79
2022/06/23 06:11:03;;;;;;;7.83;5.93;;;;;;;;;;5206544;28;20049;-83
2022/06/23 06:13:37;;;;;;;8.80;5.23;;;;;;;;;;5207033;28;20061;-85
2022/06/23 06:16:08;;;;;;;11.30;6.32;;;;;;;;;;5204585;28;20026;-77
2022/06/23 06:18:42;;;;;;;10.13;5.73;;;;;;;;;;5206726;28;20045;-77
2022/06/23 06:21:16;;;;;;;10.30;6.57;;;;;;;;;;5192260;28;20091;-77
2022/06/23 06:24:06;;;;;;;10.32;4.85;;;;;;;;;;5203503;28;20022;-76
2022/06/23 06:26:40;;;;;;;8.93;5.63;;;;;;;;;;5202355;28;20026;-77
2022/06/23 06:29:14;;;;;;;13.83;6.17;;;;;;;;;;5204725;28;20477;-77
2022/06/23 06:31:51;;;;;;;12.27;6.00;;;;;;;;;;5206542;28;20095;-77
2022/06/23 06:34:28;;;;;;;13.83;7.00;;;;;;;;;;5207571;28;20500;-74
2022/06/23 06:36:59;;;;;;;12.07;5.50;;;;;;;;;;5210633;28;20497;-79
2022/06/23 06:39:38;;;;;;;9.43;7.10;;;;;;;;;;5210413;28;20033;-80
2022/06/23 06:42:13;;;;;;;8.03;5.50;;;;;;;;;;5206200;28;20608;-80
2022/06/23 06:44:47;;;;;;;10.17;5.47;;;;;;;;;;5208878;28;20229;-78
2022/06/23 06:47:19;;;;;;;15.88;6.10;;;;;;;;;;5207372;28;20018;-79
2022/06/23 06:49:52;;;;;;;10.90;6.17;;;;;;;;;;5207997;28;20472;-73
2022/06/23 06:52:24;;;;;;;11.33;5.60;;;;;;;;;;5205982;28;20049;-74
2022/06/23 06:54:58;;;;;;;12.40;6.00;;;;;;;;;;5207030;28;20018;-74
2022/06/23 06:57:34;;;;;;;8.83;5.80;;;;;;;;;;5209578;28;20495;-75
2022/06/23 07:00:10;;;;;;;7.53;5.80;;;;;;;;;;5222367;28;20033;-75
2022/06/23 07:02:46;;;;;;;15.27;6.10;;;;;;;;;;5210861;28;20087;-78
2022/06/23 07:05:17;;;;;;;10.87;5.40;;;;;;;;;;5209295;28;20897;-79
2022/06/23 07:07:56;;;;;;;13.65;5.32;;;;;;;;;;5209480;28;20101;-78
2022/06/23 07:10:47;;;;;;;11.60;5.37;;;;;;;;;;5206427;28;20120;-80
2022/06/23 07:13:21;;;;;;;10.20;5.97;;;;;;;;;;5209516;28;20046;-78
2022/06/23 07:15:58;;;;;;;11.67;5.63;;;;;;;;;;5210055;28;20018;-79
2022/06/23 07:18:39;;;;;;;22.27;5.77;;;;;;;;;;5204896;28;20431;-82
2022/06/23 07:21:17;;;;;;;9.50;4.30;;;;;;;;;;5217439;28;20024;-81
2022/06/23 07:23:54;;;;;;;9.60;5.37;;;;;;;;;;5212987;28;20025;-81
2022/06/23 07:26:32;;;;;;;10.65;4.68;;;;;;;;;;5210143;28;20025;-79
2022/06/23 07:29:10;;;;;;;14.10;5.85;;;;;;;;;;5210808;28;20477;-77
2022/06/23 07:32:02;;;;;;;7.20;5.18;;;;;;;;;;5207444;28;20030;-78
2022/06/23 07:34:37;;;;;;;8.05;5.03;;;;;;;;;;5189290;28;20038;-79
2022/06/23 07:37:13;;;;;;;15.82;5.88;;;;;;;;;;5209603;28;20027;-79
2022/06/23 07:39:47;;;;;;;14.55;6.22;;;;;;;;;;5210765;28;20035;-79
2022/06/23 07:42:22;;;;;;;12.18;5.10;;;;;;;;;;5218271;28;20532;-79
2022/06/23 07:44:58;;;;;;;16.75;6.45;;;;;;;;;;5211031;28;20384;-78
2022/06/23 07:47:29;;;;;;;12.88;5.80;;;;;;;;;;5210502;28;20057;-78
2022/06/23 07:50:01;;;;;;;13.90;6.90;;;;;;;;;;5208827;28;20101;-79
2022/06/23 07:52:32;;;;;;;16.17;6.00;;;;;;;;;;5208053;28;20061;-79
2022/06/23 07:55:03;;;;;;;16.38;6.00;;;;;;;;;;5210499;28;20030;-78
2022/06/23 07:57:35;;;;;;;14.00;6.15;;;;;;;;;;5208488;28;20120;-79
2022/06/23 08:00:07;;;;;;;13.35;6.40;;;;;;;;;;5191927;28;20212;-79
2022/06/23 08:02:43;;;;;;;13.52;5.85;;;;;;;;;;5210101;28;20065;-79
2022/06/23 08:05:20;;;;;;;11.60;5.63;;;;;;;;;;5208234;28;20021;-79
2022/06/23 08:07:52;;;;;;;15.50;6.05;;;;;;;;;;5209812;28;20010;-76
2022/06/23 08:10:26;;;;;;;11.52;5.13;;;;;;;;;;5206564;28;20034;-78
2022/06/23 08:12:59;;;;;;;15.07;5.72;;;;;;;;;;5203604;28;20048;-82
2022/06/23 08:18:54;;;;;;;9.95;4.75;;;;;;;;;;5198194;28;20026;-77
2022/06/23 08:21:28;;;;;;;13.38;4.05;;;;;;;;;;5206613;28;20022;-73
2022/06/23 08:24:04;;;;;;;11.57;5.32;;;;;;;;;;5209244;28;20010;-75
2022/06/23 08:26:36;;;;;;;9.80;4.57;;;;;;;;;;5210060;28;20560;-74
2022/06/23 08:29:11;;;;;;;18.70;4.90;;;;;;;;;;5209598;28;20021;-73
2022/06/23 08:31:43;;;;;;;6.30;4.07;;;;;;;;;;5215190;28;20022;-73
2022/06/23 08:34:14;;;;;;;13.70;4.72;;;;;;;;;;5206680;28;20029;-75
2022/06/23 08:36:49;;;;;;;10.48;3.80;;;;;;;;;;5208201;28;20017;-75
2022/06/23 08:39:25;;;;;;;18.42;5.47;;;;;;;;;;5207874;28;20014;-79
2022/06/23 08:41:59;;;;;;;9.65;3.58;;;;;;;;;;5203613;28;20033;-79
2022/06/23 08:44:41;;;;;;;11.85;3.88;;;;;;;;;;5210128;28;20022;-79
2022/06/23 08:47:25;;;;;;;15.80;5.97;;;;;;;;;;5212721;28;20765;-79
2022/06/23 08:49:59;;;;;;;16.48;5.10;;;;;;;;;;5208330;28;20052;-79
2022/06/23 08:52:34;;;;;;;10.05;3.60;;;;;;;;;;5218840;28;20092;-79
2022/06/23 08:55:08;;;;;;;11.43;4.10;;;;;;;;;;5210514;28;20028;-77
2022/06/23 08:57:46;;;;;;;11.65;4.20;;;;;;;;;;5208221;28;20120;-78
2022/06/23 09:00:24;;;;;;;7.68;3.60;;;;;;;;;;5206528;28;20245;-78
2022/06/23 09:03:09;;;;;;;8.80;3.60;;;;;;;;;;5208778;28;20021;-77
2022/06/23 09:05:46;;;;;;;10.77;3.58;;;;;;;;;;5208889;28;20112;-78
2022/06/23 09:08:27;;;;;;;10.07;3.17;;;;;;;;;;5209176;28;20802;-78
2022/06/23 09:11:01;;;;;;;9.57;2.83;;;;;;;;;;5205686;28;20021;-78
2022/06/23 09:13:32;;;;;;;12.57;3.80;;;;;;;;;;5206627;28;20076;-78
2022/06/23 09:16:09;;;;;;;11.60;4.30;;;;;;;;;;5209218;28;20461;-77
2022/06/23 09:18:55;;;;;;;9.82;4.05;;;;;;;;;;5207352;28;20083;-78
2022/06/23 09:21:36;;;;;;;9.00;3.65;;;;;;;;;;5200841;28;20481;-78
2022/06/23 09:24:07;;;;;;;11.40;3.65;;;;;;;;;;5192795;28;20406;-78
2022/06/23 09:26:40;;;;;;;10.65;3.50;;;;;;;;;;5206344;28;20016;-78
2022/06/23 09:29:14;;;;;;;8.27;3.53;;;;;;;;;;5207023;28;20273;-77
2022/06/23 09:31:48;;;;;;;11.73;3.25;;;;;;;;;;5205467;28;20017;-77
2022/06/23 09:34:28;;;;;;;13.07;4.53;;;;;;;;;;5207161;28;20037;-78
2022/06/23 09:37:05;;;;;;;13.10;3.95;;;;;;;;;;5208790;28;20080;-77
2022/06/23 09:39:59;;;;;;;13.90;3.70;;;;;;;;;;5208530;28;20021;-78
2022/06/23 09:42:51;;;;;;;10.45;3.38;;;;;;;;;;5205364;28;20025;-78
2022/06/23 09:45:25;;;;;;;7.07;3.58;;;;;;;;;;5208369;28;20554;-76
2022/06/23 09:47:59;;;;;;;12.32;4.10;;;;;;;;;;5206830;28;20108;-78
2022/06/23 09:50:51;;;;;;;11.25;3.78;;;;;;;;;;5205401;28;20026;-78
2022/06/23 09:53:28;;;;;;;11.02;4.15;;;;;;;;;;5208258;28;20049;-78
2022/06/23 09:56:02;;;;;;;15.07;4.20;;;;;;;;;;5207221;28;20496;-78
2022/06/23 09:58:51;;;;;;;10.55;4.57;;;;;;;;;;5208265;28;20452;-76
2022/06/23 10:01:28;;;;;;;14.75;3.97;;;;;;;;;;5205200;28;20104;-77
2022/06/23 10:04:06;;;;;;;18.65;5.30;;;;;;;;;;5221886;28;20034;-77
2022/06/23 10:06:44;;;;;;;8.57;3.80;;;;;;;;;;5208490;28;20034;-76
2022/06/23 10:09:25;;;;;;;13.80;4.63;;;;;;;;;;5206478;28;20030;-77
2022/06/23 10:12:28;;;;;;;17.35;5.38;;;;;;;;;;5215157;28;20448;-77
2022/06/23 10:15:00;;;;;;;15.88;4.70;;;;;;;;;;5204825;28;20979;-77
2022/06/23 10:17:31;;;;;;;12.62;5.52;;;;;;;;;;5207958;28;20021;-78
2022/06/23 10:20:25;;;;;;;15.23;4.53;;;;;;;;;;5205972;28;20037;-77
2022/06/23 10:22:56;;;;;;;;;;;;;;;;;;5204498;28;20200;-77
2022/06/23 10:25:28;;;;;;;10.77;4.32;;;;;;;;;;5207763;28;19992;-77
2022/06/23 10:28:02;;;;;;;13.05;4.90;;;;;;;;;;5206354;28;20018;-77
2022/06/23 10:30:36;;;;;;;11.88;3.72;;;;;;;;;;5210055;28;20020;-77
2022/06/23 10:33:17;;;;;;;13.50;4.28;;;;;;;;;;5237947;28;20099;-76
2022/06/23 10:35:55;;;;;;;16.20;4.25;;;;;;;;;;5206709;28;20079;-77
2022/06/23 10:38:27;;;;;;;18.02;4.30;;;;;;;;;;5207544;28;20057;-77
2022/06/23 10:41:12;;;;;;;16.70;4.30;;;;;;;;;;5207971;28;20064;-73
2022/06/23 10:43:51;;;;;;;9.60;3.65;;;;;;;;;;5206879;28;20052;-76
2022/06/23 10:46:22;;;;;;;14.77;4.72;;;;;;;;;;5205270;28;20018;-77
2022/06/23 10:49:12;;;;;;;18.88;3.55;;;;;;;;;;5206314;28;20014;-74
2022/06/23 10:51:55;;;;;;;13.38;3.75;;;;;;;;;;5203001;28;20268;-71
2022/06/23 10:54:48;;;;;;;14.63;4.43;;;;;;;;;;5203007;28;20034;-71
2022/06/23 10:57:27;;;;;;;8.30;3.40;;;;;;;;;;5205548;28;20049;-71
2022/06/23 11:00:09;;;;;;;17.35;3.78;;;;;;;;;;5205376;28;20073;-72
2022/06/23 11:02:59;;;;;;;13.30;5.10;;;;;;;;;;5205693;28;20014;-71
2022/06/23 11:05:49;;;;;;;9.52;3.33;;;;;;;;;;5205696;28;20022;-70
2022/06/23 11:08:32;;;;;;;10.90;3.60;;;;;;;;;;5219473;28;20077;-71
2022/06/23 11:11:06;;;;;;;11.25;4.22;;;;;;;;;;5202384;28;20021;-71
2022/06/23 11:13:37;;;;;;;16.65;4.70;;;;;;;;;;5205811;28;20057;-74
2022/06/23 11:16:26;;;;;;;11.98;4.22;;;;;;;;;;5207178;28;20010;-71
2022/06/23 11:19:03;;;;;;;11.43;3.60;;;;;;;;;;5209720;28;20277;-72
2022/06/23 11:21:57;;;;;;;12.98;3.80;;;;;;;;;;5206173;28;20060;-71
2022/06/23 11:24:31;;;;;;;14.05;4.53;;;;;;;;;;5205514;28;20022;-80
2022/06/23 11:27:11;;;;;;;16.25;4.30;;;;;;;;;;5209912;28;20014;-71
2022/06/23 11:29:48;;;;;;;14.18;4.05;;;;;;;;;;5211704;28;20069;-77
2022/06/23 11:32:34;;;;;;;14.43;3.83;;;;;;;;;;5208609;28;20041;-75
2022/06/23 11:35:24;;;;;;;12.95;3.78;;;;;;;;;;5208235;28;20684;-80
2022/06/23 11:38:07;;;;;;;14.20;4.22;;;;;;;;;;5209693;28;20029;-77
2022/06/23 11:40:45;;;;;;;15.48;4.35;;;;;;;;;;5205260;28;20044;-76
2022/06/23 11:43:18;;;;;;;11.52;3.67;;;;;;;;;;5208329;28;20034;-76
2022/06/23 11:45:56;;;;;;;12.52;4.20;;;;;;;;;;5211766;28;20053;-79
2022/06/23 11:48:47;;;;;;;13.90;3.53;;;;;;;;;;5207744;28;20057;-75
2022/06/23 11:51:24;;;;;;;12.98;3.67;;;;;;;;;;5208159;28;20602;-74
2022/06/23 11:54:06;;;;;;;11.35;3.83;;;;;;;;;;5209817;28;20067;-76
2022/06/23 11:57:01;;;;;;;9.93;4.43;;;;;;;;;;5208881;28;20022;-81
2022/06/23 11:59:38;;;;;;;12.88;3.95;;;;;;;;;;5197517;28;20377;-82
2022/06/23 12:02:09;;;;;;;10.35;3.88;;;;;;;;;;5207231;28;20112;-81
2022/06/23 12:04:40;;;;;;;11.85;4.13;;;;;;;;;;5213864;28;20129;-83
2022/06/23 12:07:20;;;;;;;11.10;3.78;;;;;;;;;;5210568;28;20100;-80
2022/06/23 12:10:06;;;;;;;17.05;4.20;;;;;;;;;;5207619;28;20460;-81
2022/06/23 12:12:39;;;;;;;8.10;3.88;;;;;;;;;;5209432;28;20105;-80
2022/06/23 12:15:13;;;;;;;11.65;4.00;;;;;;;;;;5209419;28;20531;-80
2022/06/23 12:17:47;;;;;;;9.73;3.60;;;;;;;;;;5209526;28;20030;-81
2022/06/23 12:20:27;;;;;;;17.85;4.18;;;;;;;;;;5206499;28;20416;-81
2022/06/23 12:23:21;;;;;;;14.40;4.15;;;;;;;;;;5213618;28;20171;-77
2022/06/23 12:25:56;;;;;;;7.90;3.35;;;;;;;;;;5208444;28;20388;-77
2022/06/23 12:28:45;;;;;;;15.48;3.53;;;;;;;;;;5210870;28;20072;-73
2022/06/23 12:31:31;;;;;;;12.27;3.25;;;;;;;;;;5206927;28;20025;-73
2022/06/23 12:34:06;;;;;;;11.98;4.03;;;;;;;;;;5202557;28;20136;-73
2022/06/23 12:36:41;;;;;;;7.90;2.92;;;;;;;;;;5209913;28;20704;-72
2022/06/23 12:39:27;;;;;;;8.88;3.30;;;;;;;;;;5209185;28;20022;-73
2022/06/23 12:42:02;;;;;;;10.70;3.85;;;;;;;;;;5221126;28;20101;-73
2022/06/23 12:44:46;;;;;;;12.25;3.65;;;;;;;;;;5209010;28;20072;-72
2022/06/23 12:47:17;;;;;;;;;;;;;;;;;;5209591;28;20025;-73
2022/06/23 12:50:07;;;;;;;11.15;4.18;;;;;;;;;;5208928;28;20356;-73
2022/06/23 12:52:46;;;;;;;10.77;3.95;;;;;;;;;;5211266;28;20065;-73
2022/06/23 12:55:24;;;;;;;6.90;3.47;;;;;;;;;;5207198;28;20032;-72
2022/06/23 12:58:13;;;;;;;12.85;4.60;;;;;;;;;;5207001;28;20033;-73
2022/06/23 13:01:04;;;;;;;9.35;3.58;;;;;;;;;;5203475;28;20037;-72
2022/06/23 13:03:43;;;;;;;12.10;3.70;;;;;;;;;;5204064;28;20438;-73
2022/06/23 13:06:20;;;;;;;10.15;3.13;;;;;;;;;;5208273;28;20749;-72
2022/06/23 13:08:56;;;;;;;11.57;3.60;;;;;;;;;;5207831;28;20066;-72
2022/06/23 13:11:30;;;;;;;9.57;3.40;;;;;;;;;;5205547;28;20026;-73
2022/06/23 13:14:12;;;;;;;7.30;2.67;;;;;;;;;;5207941;28;20880;-73
2022/06/23 13:16:55;;;;;;;10.02;3.35;;;;;;;;;;5207829;28;20026;-72
2022/06/23 13:19:40;;;;;;;11.45;2.80;;;;;;;;;;5208385;28;20025;-72
2022/06/23 13:22:12;;;;;;;10.18;3.13;;;;;;;;;;5203501;28;20025;-73
2022/06/23 13:24:43;;;;;;;6.15;2.30;;;;;;;;;;5207209;28;20033;-72
2022/06/23 13:27:20;;;;;;;6.82;2.60;;;;;;;;;;5208146;28;20476;-72
2022/06/23 13:29:56;;;;;;;10.27;2.70;;;;;;;;;;5220307;28;20492;-70
2022/06/23 13:32:32;;;;;;;9.38;2.38;;;;;;;;;;5204889;28;20044;-76
2022/06/23 13:35:27;;;;;;;10.05;2.92;;;;;;;;;;5209894;28;20025;-75
2022/06/23 13:38:01;;;;;;;11.60;2.20;;;;;;;;;;5207056;28;20384;-75
2022/06/23 13:40:37;;;;;;;8.38;2.28;;;;;;;;;;5205652;28;20113;-75
2022/06/23 13:43:20;;;;;;;10.25;1.90;;;;;;;;;;5207158;28;20029;-75
2022/06/23 13:45:57;;;;;;;9.30;3.28;;;;;;;;;;5206604;28;20746;-75
2022/06/23 13:48:37;;;;;;;7.68;2.22;;;;;;;;;;5207865;28;20029;-75
2022/06/23 13:51:11;;;;;;;10.23;2.20;;;;;;;;;;5204574;28;20436;-75
2022/06/23 13:53:46;;;;;;;7.60;2.58;;;;;;;;;;5206353;28;20038;-75
2022/06/23 13:56:20;;;;;;;8.68;2.35;;;;;;;;;;5203647;28;20080;-75
2022/06/23 13:59:10;;;;;;;11.82;2.53;;;;;;;;;;5207757;28;20024;-75
2022/06/23 14:01:56;;;;;;;6.65;2.28;;;;;;;;;;5206856;28;20490;-75
2022/06/23 14:04:27;;;;;;;5.25;2.35;;;;;;;;;;5204427;28;20018;-75
2022/06/23 14:07:07;;;;;;;7.63;2.72;;;;;;;;;;5206258;28;20045;-75
2022/06/23 14:09:42;;;;;;;11.98;3.08;;;;;;;;;;5206614;28;20014;-75
2022/06/23 14:12:17;;;;;;;7.95;3.13;;;;;;;;;;5203664;28;20463;-75
2022/06/23 14:14:57;;;;;;;8.50;2.53;;;;;;;;;;5207472;28;20289;-75
2022/06/23 14:17:33;;;;;;;9.63;2.88;;;;;;;;;;5222900;28;20107;-75
2022/06/23 14:20:07;;;;;;;13.05;2.95;;;;;;;;;;5206094;28;20014;-74
2022/06/23 14:22:41;;;;;;;6.80;2.38;;;;;;;;;;5207011;28;20085;-74
2022/06/23 14:25:19;;;;;;;6.97;2.17;;;;;;;;;;5206765;28;20030;-75
2022/06/23 14:28:09;;;;;;;4.53;2.03;;;;;;;;;;5207794;28;20381;-75
2022/06/23 14:30:56;;;;;;;7.60;2.30;;;;;;;;;;5232096;28;20133;-75
2022/06/23 14:33:39;;;;;;;10.20;3.38;;;;;;;;;;5207632;28;20091;-75
2022/06/23 14:36:21;;;;;;;6.15;2.33;;;;;;;;;;5206090;28;20037;-75
2022/06/23 14:39:00;;;;;;;14.35;2.92;;;;;;;;;;5207531;28;20021;-74
2022/06/23 14:41:50;;;;;;;11.23;3.42;;;;;;;;;;5204397;28;20813;-75
2022/06/23 14:44:33;;;;;;;6.82;2.45;;;;;;;;;;5201514;28;20025;-77
2022/06/23 14:47:04;;;;;;;6.55;2.22;;;;;;;;;;5221530;28;20026;-75
2022/06/23 14:49:59;;;;;;;6.75;2.05;;;;;;;;;;5203246;28;20727;-73
2022/06/23 14:52:57;;;;;;;7.90;2.30;;;;;;;;;;5184802;28;20695;-74
2022/06/23 14:55:47;;;;;;;10.70;3.00;;;;;;;;;;5207705;28;20029;-77
2022/06/23 14:58:22;;;;;;;10.30;2.88;;;;;;;;;;5211647;28;20100;-73
2022/06/23 15:01:01;;;;;;;11.43;2.60;;;;;;;;;;5208200;28;20447;-73
2022/06/23 15:03:38;;;;;;;11.68;3.17;;;;;;;;;;5216251;28;20109;-72
2022/06/23 15:06:14;;;;;;;9.40;3.00;;;;;;;;;;5201349;28;20022;-69
2022/06/23 15:08:59;;;;;;;21.45;2.83;;;;;;;;;;5204979;28;20086;-75
2022/06/23 15:11:37;;;;;;;10.98;3.42;;;;;;;;;;5205998;28;20024;-71
2022/06/23 15:14:11;;;;;;;15.07;3.88;;;;;;;;;;5195989;28;20050;-72
2022/06/23 15:16:51;;;;;;;22.25;3.50;;;;;;;;;;5201826;28;20611;-73
2022/06/23 15:19:25;;;;;;;12.50;2.78;;;;;;;;;;5208286;28;20087;-72
2022/06/23 15:24:55;;;;;;;9.45;2.85;;;;;;;;;;5197098;28;20509;-72
2022/06/23 15:27:29;;;;;;;9.90;2.80;;;;;;;;;;5194783;28;20026;-74
2022/06/23 15:30:03;;;;;;;11.32;2.97;;;;;;;;;;5187990;28;20040;-71
2022/06/23 15:32:35;;;;;;;9.63;2.65;;;;;;;;;;5195255;28;20045;-73
2022/06/23 15:35:21;;;;;;;9.20;2.40;;;;;;;;;;5199388;28;20030;-70
2022/06/23 15:37:52;;;;;;;9.23;2.70;;;;;;;;;;5197759;28;20281;-83
2022/06/23 15:40:28;;;;;;;10.60;2.36;;;;;;;;;;5199362;28;20551;-76
2022/06/23 15:43:04;;;;;;;8.07;2.72;;;;;;;;;;5197410;28;20018;-76
2022/06/23 15:45:35;;;;;;;6.80;2.30;;;;;;;;;;5200076;28;20026;-76
2022/06/23 15:48:23;;;;;;;7.63;2.40;;;;;;;;;;5199245;28;20026;-74
2022/06/23 15:50:56;;;;;;;7.88;2.38;;;;;;;;;;5199634;28;20995;-74